Nashville, Tennessee
Traffic Map
Current Weather Conditions
Nashville, Tennessee
Clear
Clear
13°
Feels Like: 13°
Wind Chill: 13° Ceiling: Unl
Heat Index: 13° Visibility: 10mi
Dew Point: Wind: 0mph
Humidity: 80% Direction: ° ()
Pressure: 30.01in Gusts: 0mph
Raw Report DataKBNA 210153Z 00000KT 10SM CLR 13/09 A3001 RMK AO2 SLP162 T01280094
Traffic Incident Summary
Active as of:
Severity:
Category:
InformationThere was an issue retrieving the traffic information for this location. Please try a different location or try again shortly.
Advertisements
Track Severe Weather on mobile